Time;durP1;ratioP1;P1;durP2;ratioP2;P2;SDS_P1;SDS_P2;PMS_P1;PMS_P2;Temp;Humidity;BMP_temperature;BMP_pressure;BME280_temperature;BME280_humidity;BME280_pressure;Samples;Min_cycle;Max_cycle;Signal;HPM_P1;HPM_P2
2022/01/24 00:00:04;;;;;;;132.73;48.28;;;;;;;-12.86;58.11;101351.84;5071174;28;20036;-76
2022/01/24 00:02:31;;;;;;;137.73;47.83;;;;;;;-12.86;57.80;101357.91;5057766;28;20393;-75
2022/01/24 00:04:57;;;;;;;124.90;48.33;;;;;;;-12.84;58.36;101363.09;5075653;28;20090;-76
2022/01/24 00:07:24;;;;;;;147.07;50.15;;;;;;;-12.84;57.73;101365.69;5074604;28;20090;-75
2022/01/24 00:09:54;;;;;;;153.68;50.03;;;;;;;-12.83;57.85;101362.28;5041722;28;20121;-74
2022/01/24 00:12:29;;;;;;;149.57;50.05;;;;;;;-12.86;58.18;101367.28;5074297;28;20044;-75
2022/01/24 00:17:39;;;;;;;146.55;49.80;;;;;;;-13.07;57.43;101362.91;5075428;28;20080;-75
2022/01/24 00:28:22;;;;;;;148.82;48.83;;;;;;;-13.28;57.66;101356.75;5073784;28;20070;-74
2022/01/24 00:30:48;;;;;;;152.93;49.85;;;;;;;-13.31;57.05;101366.91;5073602;28;20131;-75
2022/01/24 00:33:15;;;;;;;150.63;47.25;;;;;;;-13.43;57.03;101366.31;5107496;28;20104;-74
2022/01/24 00:35:41;;;;;;;149.13;50.25;;;;;;;-13.55;57.62;101367.47;5057465;28;20050;-74
2022/01/24 00:38:07;;;;;;;142.45;51.13;;;;;;;-13.60;57.51;101371.53;5073570;28;20052;-75
2022/01/24 00:40:38;;;;;;;164.88;51.50;;;;;;;-13.77;57.61;101355.25;5074040;28;20087;-75
2022/01/24 00:43:16;;;;;;;148.57;47.55;;;;;;;-13.84;58.05;101362.56;5074360;28;20519;-76
2022/01/24 00:56:06;;;;;;;153.45;48.83;;;;;;;-13.98;58.04;101385.91;5090531;28;20079;-75
2022/01/24 00:58:32;;;;;;;162.40;49.35;;;;;;;-14.04;58.03;101388.16;5073310;28;20044;-74
2022/01/24 01:00:58;;;;;;;155.15;51.90;;;;;;;-14.12;58.16;101386.88;5074432;28;20033;-75
2022/01/24 01:03:25;;;;;;;169.40;50.67;;;;;;;-14.11;58.23;101403.19;5073502;28;20067;-75
2022/01/24 01:06:11;;;;;;;158.10;49.05;;;;;;;-14.23;58.30;101390.56;5090111;28;20495;-76
2022/01/24 01:19:38;;;;;;;158.90;51.60;;;;;;;-14.35;59.14;101387.38;5102490;28;20143;-74
2022/01/24 01:22:04;;;;;;;162.18;46.08;;;;;;;-14.35;59.04;101382.25;5074451;28;20396;-75
2022/01/24 01:24:33;;;;;;;147.68;48.97;;;;;;;-14.39;59.47;101380.31;5074397;28;20131;-75
2022/01/24 01:27:06;;;;;;;142.10;48.35;;;;;;;-14.45;59.38;101384.31;5074042;28;20041;-75
2022/01/24 01:29:49;;;;;;;153.75;49.70;;;;;;;-14.54;59.66;101394.13;5072725;28;20040;-75
2022/01/24 01:32:30;;;;;;;159.70;51.20;;;;;;;-14.57;59.50;101404.22;5073969;28;20397;-76
2022/01/24 01:37:48;;;;;;;157.38;50.92;;;;;;;-14.46;59.90;101399.66;5072465;28;20169;-74
2022/01/24 01:56:05;;;;;;;153.95;53.17;;;;;;;-14.28;61.24;101399.75;5073390;28;20495;-76
2022/01/24 01:58:31;;;;;;;150.27;51.92;;;;;;;-14.21;60.95;101413.00;5072645;28;20052;-75
2022/01/24 02:00:58;;;;;;;147.75;50.95;;;;;;;-14.26;61.58;101399.00;5072235;28;20071;-75
2022/01/24 02:03:25;;;;;;;177.98;52.70;;;;;;;-14.33;61.93;101398.59;5055781;28;20050;-76
2022/01/24 02:05:51;;;;;;;156.57;54.30;;;;;;;-14.42;61.94;101401.56;5039503;28;20173;-75
2022/01/24 02:08:17;;;;;;;164.60;56.45;;;;;;;-14.40;61.87;101409.34;5072377;28;20135;-77
2022/01/24 02:10:44;;;;;;;161.85;55.63;;;;;;;-14.36;61.75;101390.75;5055871;28;20044;-75
2022/01/24 02:13:11;;;;;;;153.48;54.85;;;;;;;-14.30;61.70;101391.06;5089207;28;20098;-75
2022/01/24 02:25:53;;;;;;;157.68;51.88;;;;;;;-14.42;61.06;101380.16;5072107;28;20044;-76
2022/01/24 02:28:21;;;;;;;176.15;58.00;;;;;;;-14.40;60.87;101393.94;5072088;28;20047;-75
2022/01/24 02:30:57;;;;;;;180.60;56.80;;;;;;;-14.45;61.21;101392.00;5071495;28;20097;-76
2022/01/24 02:33:24;;;;;;;225.35;93.53;;;;;;;-14.55;61.13;101382.09;5071096;28;20131;-76
2022/01/24 02:35:50;;;;;;;175.20;60.10;;;;;;;-14.49;61.52;101386.66;5054656;28;20071;-76
2022/01/24 02:38:38;;;;;;;148.88;54.88;;;;;;;-14.49;61.35;101390.09;5038350;28;20044;-77
2022/01/24 02:49:12;;;;;;;162.02;54.88;;;;;;;-14.52;61.77;101379.69;5054819;28;20436;-76
2022/01/24 02:51:47;;;;;;;176.05;56.97;;;;;;;-14.54;61.38;101376.16;5073419;28;20039;-75
2022/01/24 02:54:32;;;;;;;175.40;56.17;;;;;;;-14.49;62.02;101377.25;5074512;28;20399;-75
2022/01/24 02:57:01;;;;;;;150.68;50.03;;;;;;;-14.46;61.59;101377.41;5079605;28;20070;-75
2022/01/24 02:59:47;;;;;;;167.82;55.45;;;;;;;-14.42;61.58;101367.31;5074849;28;20055;-75
2022/01/24 03:02:13;;;;;;;167.70;52.95;;;;;;;-14.38;61.82;101376.94;5090441;28;20060;-76
2022/01/24 03:04:40;;;;;;;160.15;52.15;;;;;;;-14.32;61.56;101380.72;5057091;28;20539;-76
2022/01/24 03:07:06;;;;;;;163.18;52.65;;;;;;;-14.25;61.90;101384.50;5040525;28;20506;-72
2022/01/24 03:09:33;;;;;;;163.07;52.50;;;;;;;-14.22;61.62;101379.50;5073319;28;20098;-76
2022/01/24 03:12:12;;;;;;;167.32;57.85;;;;;;;-14.18;61.52;101381.41;5057221;28;20162;-75
2022/01/24 03:14:38;;;;;;;;;;;;;;;-14.16;61.58;101384.97;5107946;28;20042;-74
2022/01/24 03:17:05;;;;;;;144.63;48.67;;;;;;;-14.23;61.48;101382.88;5090606;28;19920;-76
2022/01/24 03:19:31;;;;;;;159.98;54.47;;;;;;;-14.17;61.07;101390.91;5040232;28;20040;-76
2022/01/24 03:21:57;;;;;;;156.55;52.40;;;;;;;-14.10;61.12;101403.28;5074005;28;20043;-76
2022/01/24 03:24:23;;;;;;;151.90;53.88;;;;;;;-14.09;60.56;101401.59;5090302;28;20490;-76
2022/01/24 03:26:49;;;;;;;169.07;53.30;;;;;;;-14.24;60.36;101396.53;5073359;28;20039;-75
2022/01/24 03:29:15;;;;;;;167.80;53.90;;;;;;;-14.29;59.95;101401.44;5073605;28;20403;-74
2022/01/24 03:31:43;;;;;;;173.90;56.08;;;;;;;-14.35;60.56;101397.66;5090391;28;20040;-77
2022/01/24 03:34:09;;;;;;;175.18;54.15;;;;;;;-14.40;59.98;101399.06;5089221;28;20075;-76
2022/01/24 03:36:34;;;;;;;160.20;54.15;;;;;;;-14.51;60.00;101398.56;5095951;28;20074;-80
2022/01/24 03:39:01;;;;;;;166.20;52.75;;;;;;;-14.62;60.30;101403.13;5061360;28;20071;-78
2022/01/24 03:41:26;;;;;;;182.48;56.55;;;;;;;-14.60;60.08;101405.75;5077792;28;20066;-79
2022/01/24 03:43:53;;;;;;;152.25;53.10;;;;;;;-14.61;60.25;101404.00;5077655;28;20066;-77
2022/01/24 03:48:50;;;;;;;153.98;54.35;;;;;;;-14.60;60.83;101398.06;5077559;28;20067;-79
2022/01/24 03:51:17;;;;;;;152.73;52.55;;;;;;;-14.63;60.57;101391.06;5078914;28;20134;-78
2022/01/24 03:53:43;;;;;;;153.95;52.50;;;;;;;-14.63;60.81;101398.75;5077900;28;20039;-79
2022/01/24 03:56:10;;;;;;;168.23;52.55;;;;;;;-14.64;61.11;101396.13;5077953;28;20042;-76
2022/01/24 03:58:36;;;;;;;167.52;54.97;;;;;;;-14.68;61.17;101396.75;5061282;28;20545;-75
2022/01/24 04:01:03;;;;;;;169.30;55.75;;;;;;;-14.67;61.42;101396.81;5044383;28;20179;-77
2022/01/24 04:03:29;;;;;;;159.32;51.75;;;;;;;-14.65;60.84;101397.81;5096497;28;20043;-76
2022/01/24 04:05:55;;;;;;;159.70;50.53;;;;;;;-14.67;61.23;101401.97;5077723;28;20067;-77
2022/01/24 04:08:21;;;;;;;166.88;56.63;;;;;;;-14.67;61.19;101394.25;5094291;28;20143;-74
2022/01/24 04:10:51;;;;;;;162.93;54.50;;;;;;;-14.73;61.23;101401.66;5077757;28;20044;-77
2022/01/24 04:13:31;;;;;;;142.40;52.67;;;;;;;-14.69;60.96;101406.16;5078454;28;20560;-78
2022/01/24 04:23:50;;;;;;;167.60;51.25;;;;;;;-14.62;60.76;101392.84;5077505;28;20123;-78
2022/01/24 04:26:16;;;;;;;155.95;54.10;;;;;;;-14.62;60.99;101382.56;5045084;28;20502;-78
2022/01/24 04:28:42;;;;;;;159.93;55.10;;;;;;;-14.56;60.56;101393.16;5094219;28;20035;-78
2022/01/24 04:31:09;;;;;;;159.57;55.95;;;;;;;-14.49;60.76;101395.22;5077325;28;20049;-78
2022/01/24 04:33:34;;;;;;;159.10;55.58;;;;;;;-14.43;60.85;101399.81;5077335;28;20056;-77
2022/01/24 04:36:01;;;;;;;152.45;48.95;;;;;;;-14.47;60.23;101401.34;5093927;28;20535;-78
2022/01/24 04:38:27;;;;;;;154.77;53.30;;;;;;;-14.51;60.46;101396.88;5076753;28;20039;-79
2022/01/24 04:40:58;;;;;;;157.98;56.25;;;;;;;-14.56;60.61;101400.84;5077026;28;20419;-78
2022/01/24 04:46:58;;;;;;;152.02;54.60;;;;;;;-14.30;59.69;101406.47;5092876;28;20063;-78
2022/01/24 04:51:38;;;;;;;125.78;44.35;;;;;;;-14.56;59.46;101400.84;5079737;28;20071;-77
2022/01/24 04:56:39;;;;;;;169.50;55.40;;;;;;;-14.95;60.34;101408.16;5076947;28;20040;-77
2022/01/24 04:59:05;;;;;;;163.52;51.55;;;;;;;-14.88;60.63;101405.94;5076704;28;20036;-78
2022/01/24 05:01:31;;;;;;;151.13;53.03;;;;;;;-15.17;60.91;101389.81;5078642;28;20407;-77
2022/01/24 05:03:57;;;;;;;181.48;65.82;;;;;;;-15.18;62.12;101400.88;5095727;28;20067;-78
2022/01/24 05:06:23;;;;;;;457.50;66.00;;;;;;;-15.38;64.23;101403.97;5059759;28;20051;-79
2022/01/24 05:08:49;;;;;;;461.15;65.13;;;;;;;-15.65;64.97;101417.03;5059562;28;20055;-77
2022/01/24 05:11:21;;;;;;;434.83;63.40;;;;;;;-15.73;64.93;101425.94;5076777;28;20048;-79
2022/01/24 05:24:34;;;;;;;250.82;53.63;;;;;;;-15.75;66.37;101425.00;5055373;28;20106;-78
2022/01/24 05:27:01;;;;;;;280.33;58.60;;;;;;;-15.71;65.97;101416.69;5061259;28;20090;-80
2022/01/24 05:29:27;;;;;;;210.40;51.97;;;;;;;-15.77;65.94;101417.19;5047359;28;20049;-76
2022/01/24 05:31:55;;;;;;;313.85;56.47;;;;;;;-15.82;66.37;101415.16;5076060;28;20143;-78
2022/01/24 05:34:22;;;;;;;208.80;48.83;;;;;;;-16.11;66.34;101410.88;5060517;28;20492;-82
2022/01/24 05:36:49;;;;;;;119.05;43.63;;;;;;;-16.14;66.94;101416.69;5073304;28;20139;-79
2022/01/24 05:39:15;;;;;;;122.65;43.78;;;;;;;-16.15;66.93;101408.94;5056914;28;20192;-78
2022/01/24 05:41:41;;;;;;;175.95;56.85;;;;;;;-15.85;67.16;101385.13;5039183;28;20141;-78
2022/01/24 05:44:07;;;;;;;179.95;45.60;;;;;;;-15.83;67.08;101398.00;5083868;28;20434;-76
2022/01/24 05:46:33;;;;;;;166.98;52.13;;;;;;;-15.75;66.73;101392.56;5059091;28;20048;-77
2022/01/24 05:48:59;;;;;;;156.75;51.80;;;;;;;-15.55;66.33;101391.09;5042243;28;20139;-78
2022/01/24 05:51:25;;;;;;;172.73;49.13;;;;;;;-15.29;65.78;101378.88;5058636;28;20044;-80
2022/01/24 05:53:51;;;;;;;145.43;48.45;;;;;;;-15.18;65.43;101372.66;5074778;28;20074;-79
2022/01/24 05:56:17;;;;;;;157.50;52.25;;;;;;;-15.08;65.53;101374.03;5041913;28;20036;-79
2022/01/24 05:58:43;;;;;;;139.43;50.47;;;;;;;-14.81;65.17;101375.56;5058014;28;20052;-79
2022/01/24 06:01:09;;;;;;;153.43;51.92;;;;;;;-14.58;64.81;101374.22;5058627;28;20036;-76
2022/01/24 06:03:36;;;;;;;161.45;50.47;;;;;;;-14.42;64.37;101380.16;5042391;28;20040;-76
2022/01/24 06:06:02;;;;;;;125.72;47.83;;;;;;;-14.29;64.14;101382.53;5042169;28;20047;-77
2022/01/24 06:08:28;;;;;;;168.68;52.65;;;;;;;-14.02;64.42;101383.13;5058199;28;20079;-75
2022/01/24 06:10:58;;;;;;;168.15;53.97;;;;;;;-13.74;63.91;101385.38;5041038;28;20058;-78
2022/01/24 06:13:27;;;;;;;155.82;51.85;;;;;;;-13.54;63.89;101394.06;5071827;28;20040;-75
2022/01/24 06:15:53;;;;;;;200.05;58.53;;;;;;;-13.31;63.78;101387.50;5022107;28;20388;-77
2022/01/24 06:18:20;;;;;;;155.13;56.55;;;;;;;-13.09;63.37;101390.25;5071320;28;20083;-77
2022/01/24 06:20:46;;;;;;;130.40;48.60;;;;;;;-12.92;62.75;101379.91;5038775;28;20048;-77
2022/01/24 06:23:16;;;;;;;155.68;58.53;;;;;;;-12.75;62.06;101372.16;5054682;28;20059;-77
2022/01/24 06:25:42;;;;;;;157.70;55.55;;;;;;;-12.66;61.70;101363.97;5054869;28;20068;-77
2022/01/24 06:28:08;;;;;;;187.02;63.20;;;;;;;-12.52;61.55;101362.03;5072099;28;20068;-78
2022/01/24 06:30:34;;;;;;;194.00;63.08;;;;;;;-12.39;60.67;101355.72;5038260;28;20089;-78
2022/01/24 06:33:00;;;;;;;170.13;62.50;;;;;;;-12.30;60.06;101356.97;5071335;28;20139;-78
2022/01/24 06:35:26;;;;;;;190.23;64.60;;;;;;;-12.14;59.70;101358.56;5088178;28;20138;-78
2022/01/24 06:37:52;;;;;;;195.95;69.95;;;;;;;-12.14;59.08;101358.56;5070641;28;20043;-77
2022/01/24 06:40:19;;;;;;;196.98;72.70;;;;;;;-12.09;58.81;101353.59;5071067;28;20448;-75
2022/01/24 06:42:45;;;;;;;190.80;69.38;;;;;;;-11.95;58.46;101365.38;5071291;28;20056;-77
2022/01/24 06:45:11;;;;;;;220.27;74.53;;;;;;;-11.80;58.46;101347.06;5071588;28;20051;-78
2022/01/24 06:47:37;;;;;;;194.25;68.22;;;;;;;-11.62;57.34;101359.84;5071097;28;20048;-76
2022/01/24 06:50:04;;;;;;;206.15;73.30;;;;;;;-11.53;57.03;101361.13;5070668;28;20093;-76
2022/01/24 06:52:30;;;;;;;210.25;70.75;;;;;;;-11.47;56.30;101344.09;5087437;28;20040;-76
2022/01/24 06:54:56;;;;;;;189.65;67.32;;;;;;;-11.40;55.52;101351.28;5071513;28;20037;-77
2022/01/24 06:57:24;;;;;;;184.88;65.18;;;;;;;-11.36;54.89;101348.88;5081627;28;20067;-77
2022/01/24 06:59:50;;;;;;;197.35;65.97;;;;;;;-11.33;54.39;101358.47;5052985;28;20044;-77
2022/01/24 07:02:16;;;;;;;190.55;66.53;;;;;;;-11.37;54.14;101330.78;5057353;28;20636;-77
2022/01/24 07:04:43;;;;;;;177.65;63.88;;;;;;;-11.36;53.25;101354.03;5074528;28;20502;-77
2022/01/24 07:07:09;;;;;;;163.60;62.90;;;;;;;-11.37;53.06;101356.56;5084892;28;20036;-77
2022/01/24 07:09:36;;;;;;;194.55;66.68;;;;;;;-11.33;53.36;101348.13;5088468;28;20083;-77
2022/01/24 07:12:03;;;;;;;186.57;66.20;;;;;;;-11.30;53.37;101343.09;5108348;28;20146;-77
2022/01/24 07:14:29;;;;;;;189.60;65.90;;;;;;;-11.21;52.85;101345.16;5041743;28;20101;-78
2022/01/24 07:19:26;;;;;;;183.73;67.38;;;;;;;-11.02;52.89;101345.06;5074750;28;20056;-77
2022/01/24 07:21:53;;;;;;;180.18;66.75;;;;;;;-10.94;52.74;101337.59;5057959;28;20046;-77
2022/01/24 07:24:19;;;;;;;196.40;67.53;;;;;;;-10.82;52.01;101343.28;5041519;28;20044;-77
2022/01/24 07:26:45;;;;;;;176.02;68.10;;;;;;;-10.74;51.71;101331.53;5058231;28;20058;-75
2022/01/24 07:29:11;;;;;;;179.60;64.85;;;;;;;-10.71;51.44;101326.47;5091332;28;20043;-76
2022/01/24 07:31:37;;;;;;;171.80;63.75;;;;;;;-10.69;51.14;101331.69;5094525;28;20067;-77
2022/01/24 07:34:03;;;;;;;158.05;58.15;;;;;;;-10.96;50.40;101318.59;5077565;28;20098;-80
2022/01/24 07:36:29;;;;;;;189.65;67.95;;;;;;;-11.03;50.70;101320.06;5060684;28;20048;-76
2022/01/24 07:38:55;;;;;;;185.15;65.10;;;;;;;-11.07;50.50;101325.94;5061727;28;20181;-77
2022/01/24 07:41:28;;;;;;;160.27;56.35;;;;;;;-11.20;50.36;101314.25;5061193;28;20048;-77
2022/01/24 07:43:55;;;;;;;194.80;69.53;;;;;;;-11.11;51.07;101322.34;5062521;28;20568;-77
2022/01/24 07:46:21;;;;;;;187.63;65.03;;;;;;;-10.99;50.40;101315.91;5061458;28;20035;-78
2022/01/24 07:48:46;;;;;;;171.88;61.25;;;;;;;-10.96;49.92;101318.59;5061694;28;20047;-76
2022/01/24 07:51:15;;;;;;;172.32;64.97;;;;;;;-10.92;49.88;101320.47;5078027;28;20044;-78
2022/01/24 07:53:42;;;;;;;185.30;64.30;;;;;;;-10.82;49.83;101332.94;5094978;28;20233;-79
2022/01/24 07:56:08;;;;;;;176.43;64.30;;;;;;;-10.61;50.72;101340.59;5061832;28;20077;-78
2022/01/24 07:58:34;;;;;;;165.57;64.50;;;;;;;-10.51;49.94;101334.97;5061138;28;20187;-79
2022/01/24 08:01:00;;;;;;;159.77;64.10;;;;;;;-10.44;49.56;101328.31;5044861;28;20058;-78
2022/01/24 08:03:26;;;;;;;180.63;61.67;;;;;;;-10.43;49.80;101335.22;5044767;28;20477;-77
2022/01/24 08:05:53;;;;;;;166.60;61.38;;;;;;;-10.38;49.66;101320.75;5096000;28;20040;-80
2022/01/24 08:08:19;;;;;;;178.20;67.78;;;;;;;-10.19;49.59;101323.16;5027884;28;20125;-78
2022/01/24 08:10:45;;;;;;;185.40;70.03;;;;;;;-10.05;49.58;101323.63;5044441;28;20048;-78
2022/01/24 08:13:13;;;;;;;208.00;73.72;;;;;;;-9.87;49.12;101326.00;5060874;28;20193;-78
2022/01/24 08:15:39;;;;;;;191.00;70.00;;;;;;;-9.70;49.32;101321.38;5061553;28;20067;-78
2022/01/24 08:18:05;;;;;;;186.35;70.05;;;;;;;-9.54;48.69;101324.53;5061040;28;20044;-77
2022/01/24 08:20:31;;;;;;;181.18;65.43;;;;;;;-9.69;48.80;101321.44;5060562;28;20498;-78
2022/01/24 08:22:57;;;;;;;173.20;59.83;;;;;;;-9.82;49.05;101319.25;5077142;28;20047;-78
2022/01/24 08:25:23;;;;;;;153.07;62.67;;;;;;;-9.85;49.50;101321.75;5059837;28;20052;-78
2022/01/24 08:27:49;;;;;;;158.68;62.42;;;;;;;-9.76;49.74;101323.78;5089654;28;20044;-76
2022/01/24 08:30:20;;;;;;;156.10;60.63;;;;;;;-9.84;49.42;101332.16;5041189;28;20044;-77
2022/01/24 08:32:46;;;;;;;161.48;63.22;;;;;;;-9.70;50.00;101330.03;5040852;28;20091;-77
2022/01/24 08:35:13;;;;;;;191.48;67.93;;;;;;;-9.52;49.60;101313.34;5088046;28;20040;-77
2022/01/24 08:37:43;;;;;;;172.82;62.72;;;;;;;-9.81;49.58;101327.09;5057058;28;20109;-77
2022/01/24 08:40:11;;;;;;;183.98;64.05;;;;;;;-10.02;49.94;101316.88;5056894;28;20087;-78
2022/01/24 08:47:32;;;;;;;180.07;64.55;;;;;;;-9.46;50.53;101308.38;5057286;28;20423;-78
2022/01/24 08:49:58;;;;;;;173.60;62.88;;;;;;;-9.16;50.17;101314.53;5058887;28;20036;-82
2022/01/24 08:52:27;;;;;;;178.05;61.28;;;;;;;-8.95;49.84;101313.41;5104500;28;20043;-79
2022/01/24 08:54:53;;;;;;;191.57;63.92;;;;;;;-8.87;49.50;101314.56;5076765;28;20400;-78
2022/01/24 08:57:25;;;;;;;205.38;67.90;;;;;;;-8.98;49.80;101316.81;5059920;28;20052;-78
2022/01/24 08:59:52;;;;;;;184.75;63.67;;;;;;;-9.08;50.65;101306.97;5093501;28;20040;-76
2022/01/24 09:02:18;;;;;;;176.48;61.90;;;;;;;-8.95;50.22;101310.81;5059905;28;20052;-78
2022/01/24 09:04:45;;;;;;;191.63;65.90;;;;;;;-8.94;50.15;101310.00;5095170;28;20036;-76
2022/01/24 09:07:11;;;;;;;189.45;64.00;;;;;;;-8.98;50.14;101297.78;5059598;28;20051;-75
2022/01/24 09:09:38;;;;;;;193.50;64.68;;;;;;;-8.83;50.59;101299.13;5043322;28;20070;-77
2022/01/24 09:12:05;;;;;;;190.43;64.03;;;;;;;-8.72;50.32;101296.84;5059429;28;20039;-78
2022/01/24 09:14:31;;;;;;;193.73;67.85;;;;;;;-8.66;50.56;101306.50;5076581;28;20047;-78
2022/01/24 09:16:57;;;;;;;183.20;61.15;;;;;;;-8.68;50.29;101297.81;5076534;28;20089;-81
2022/01/24 09:19:23;;;;;;;182.32;62.90;;;;;;;-8.61;50.12;101298.03;5060015;28;20135;-79
2022/01/24 09:21:50;;;;;;;178.98;64.32;;;;;;;-8.50;50.09;101313.00;5093140;28;20046;-77
2022/01/24 09:24:16;;;;;;;196.07;64.47;;;;;;;-8.42;50.35;101302.03;5093149;28;20135;-78
2022/01/24 09:26:42;;;;;;;185.27;62.08;;;;;;;-8.34;50.40;101294.44;5072424;28;20052;-77
2022/01/24 09:29:08;;;;;;;194.55;67.93;;;;;;;-8.20;50.08;101293.06;5082525;28;20076;-78
2022/01/24 09:31:34;;;;;;;178.85;59.22;;;;;;;-8.12;49.59;101291.59;5039694;28;20090;-78
2022/01/24 09:34:00;;;;;;;189.05;64.57;;;;;;;-8.10;49.50;101289.03;5039434;28;20063;-78
2022/01/24 09:36:26;;;;;;;175.98;63.55;;;;;;;-8.02;48.98;101291.81;5039215;28;20044;-78
2022/01/24 09:38:54;;;;;;;184.50;63.10;;;;;;;-7.98;48.72;101294.53;5072318;28;20076;-79
2022/01/24 09:41:20;;;;;;;167.88;63.25;;;;;;;-7.89;48.04;101299.13;5039984;28;20133;-78
2022/01/24 09:43:46;;;;;;;169.10;63.65;;;;;;;-7.80;47.85;101299.34;5056013;28;20503;-79
2022/01/24 09:46:13;;;;;;;168.68;60.25;;;;;;;-7.75;47.75;101289.94;5072358;28;20097;-79
2022/01/24 09:48:39;;;;;;;183.00;67.30;;;;;;;-7.72;47.49;101292.63;5073677;28;20044;-79
2022/01/24 09:51:05;;;;;;;178.45;66.80;;;;;;;-7.77;47.18;101296.81;5060077;28;20146;-79
2022/01/24 09:53:32;;;;;;;191.00;62.50;;;;;;;-7.85;47.29;101300.94;5059330;28;20051;-79
2022/01/24 09:56:03;;;;;;;174.02;62.70;;;;;;;-7.92;47.45;101286.91;5092951;28;20105;-78
2022/01/24 09:58:30;;;;;;;174.35;65.47;;;;;;;-8.04;47.18;101289.19;5092680;28;20086;-77
2022/01/24 10:00:56;;;;;;;185.27;63.80;;;;;;;-8.14;47.19;101285.47;5059368;28;20093;-78
2022/01/24 10:03:24;;;;;;;172.75;62.22;;;;;;;-8.20;47.34;101285.28;5042755;28;20040;-76
2022/01/24 10:05:54;;;;;;;180.38;64.55;;;;;;;-8.27;47.46;101283.41;5093265;27;20142;-76
2022/01/24 10:08:22;;;;;;;164.50;62.28;;;;;;;-8.37;47.47;101279.66;5076191;28;20039;-77
2022/01/24 10:10:52;;;;;;;176.77;63.85;;;;;;;-8.36;47.57;101283.13;5092042;28;20080;-78
2022/01/24 10:16:35;;;;;;;170.07;66.95;;;;;;;-8.45;47.15;101288.09;5077700;28;20499;-79
2022/01/24 10:19:11;;;;;;;171.75;64.05;;;;;;;-8.39;46.97;101289.13;5071159;28;20071;-79
2022/01/24 10:21:45;;;;;;;169.75;63.00;;;;;;;-8.33;47.20;101276.31;5081534;28;20049;-78
2022/01/24 10:24:26;;;;;;;158.98;60.13;;;;;;;-8.43;46.58;101268.25;5072821;28;20108;-77
2022/01/24 10:27:09;;;;;;;167.30;56.85;;;;;;;-8.51;46.48;101274.97;5057501;28;20491;-78
2022/01/24 10:29:42;;;;;;;154.73;58.35;;;;;;;-8.57;46.40;101266.19;5055273;28;20076;-78
2022/01/24 10:32:08;;;;;;;165.73;59.38;;;;;;;-8.72;46.17;101270.94;5088157;28;20044;-78
2022/01/24 10:34:36;;;;;;;155.38;57.50;;;;;;;-8.81;46.63;101271.53;5054876;28;20051;-75
2022/01/24 10:37:02;;;;;;;158.45;59.42;;;;;;;-8.90;46.48;101273.88;5072050;28;20055;-75
2022/01/24 10:44:54;;;;;;;143.03;55.67;;;;;;;-9.46;48.04;101277.31;5054249;28;20044;-76
2022/01/24 10:47:27;;;;;;;183.13;59.58;;;;;;;-9.53;48.35;101276.22;5038311;28;20047;-76
2022/01/24 10:49:53;;;;;;;161.43;57.92;;;;;;;-9.40;48.61;101278.38;5044519;28;20040;-77
2022/01/24 10:52:30;;;;;;;170.30;58.40;;;;;;;-9.31;48.97;101282.97;5021851;28;20049;-75
2022/01/24 10:55:16;;;;;;;134.50;50.50;;;;;;;-9.66;48.98;101285.31;5056273;28;20561;-77
2022/01/24 10:57:43;;;;;;;157.18;53.70;;;;;;;-9.87;49.33;101294.94;5086420;28;20453;-75
2022/01/24 11:00:13;;;;;;;145.63;50.88;;;;;;;-10.12;50.08;101286.31;5091379;28;20047;-77
2022/01/24 11:02:41;;;;;;;184.63;53.75;;;;;;;-10.17;50.68;101280.13;5041661;28;20040;-79
2022/01/24 11:05:10;;;;;;;144.20;48.33;;;;;;;-10.13;51.03;101286.28;5058284;28;20446;-81
2022/01/24 11:08:01;;;;;;;163.88;57.33;;;;;;;-10.19;51.16;101271.47;5058019;28;20588;-78
2022/01/24 11:10:35;;;;;;;146.02;55.03;;;;;;;-10.22;50.92;101291.16;5076135;28;20040;-79
2022/01/24 11:13:05;;;;;;;152.73;58.38;;;;;;;-10.18;51.22;101299.06;5058595;28;20043;-79
2022/01/24 11:15:32;;;;;;;147.70;54.67;;;;;;;-10.11;51.43;101300.16;5058944;28;20066;-81
2022/01/24 11:17:59;;;;;;;156.07;53.45;;;;;;;-10.15;51.34;101293.13;5058099;28;20044;-82
2022/01/24 11:20:30;;;;;;;137.38;51.63;;;;;;;-10.16;51.03;101307.75;5074638;28;20483;-80
2022/01/24 11:23:00;;;;;;;120.15;47.88;;;;;;;-10.21;51.06;101293.78;5075259;28;20050;-79
2022/01/24 11:25:33;;;;;;;138.00;53.03;;;;;;;-10.26;51.53;101289.31;5058734;28;20040;-78
2022/01/24 11:27:59;;;;;;;158.40;54.63;;;;;;;-10.22;51.18;101286.84;5058317;28;20032;-84
2022/01/24 11:30:31;;;;;;;161.43;59.42;;;;;;;-10.18;51.32;101296.47;5074568;28;20399;-76
2022/01/24 11:33:11;;;;;;;154.25;52.60;;;;;;;-10.13;50.93;101291.47;5074414;28;20056;-77
2022/01/24 11:35:44;;;;;;;133.45;50.40;;;;;;;-10.13;50.95;101292.34;5075056;28;20039;-79
2022/01/24 11:38:30;;;;;;;145.25;50.33;;;;;;;-10.17;51.34;101298.22;5075200;28;20047;-79
2022/01/24 11:41:20;;;;;;;152.65;55.10;;;;;;;-10.15;51.29;101294.00;5058330;28;20048;-80
2022/01/24 11:43:48;;;;;;;161.32;51.65;;;;;;;-10.17;51.12;101285.31;5058980;28;20564;-78
2022/01/24 11:49:12;;;;;;;151.02;51.70;;;;;;;-10.31;51.69;101276.22;5074809;28;20082;-77
2022/01/24 11:51:39;;;;;;;153.68;54.05;;;;;;;-10.37;51.78;101286.34;5074543;28;20465;-77
2022/01/24 11:55:00;;;;;;;169.63;57.22;;;;;;;-10.40;51.73;101287.13;5074062;28;20046;-78
2022/01/24 11:57:33;;;;;;;157.80;54.15;;;;;;;-10.47;52.10;101284.25;5057285;28;20052;-79
2022/01/24 12:00:05;;;;;;;160.07;53.97;;;;;;;-10.56;52.19;101279.66;5078681;28;20078;-79
2022/01/24 12:02:45;;;;;;;158.13;54.67;;;;;;;-10.56;52.11;101285.69;5078295;28;20093;-78
2022/01/24 12:05:23;;;;;;;162.80;54.25;;;;;;;-10.68;52.07;101274.91;5079097;28;20516;-78
2022/01/24 12:07:50;;;;;;;173.13;54.15;;;;;;;-10.81;52.53;101283.03;5045504;28;20617;-80
2022/01/24 12:10:23;;;;;;;168.63;54.00;;;;;;;-10.81;52.73;101288.19;5060804;28;20510;-78
2022/01/24 12:13:01;;;;;;;157.43;53.40;;;;;;;-10.90;52.30;101283.56;5111331;28;20051;-76
2022/01/24 12:15:37;;;;;;;154.38;52.10;;;;;;;-11.04;52.83;101280.44;5060926;28;20066;-78
2022/01/24 12:18:26;;;;;;;176.45;56.00;;;;;;;-11.08;52.69;101288.91;5094145;28;20112;-78
2022/01/24 12:20:57;;;;;;;163.93;54.63;;;;;;;-11.18;53.05;101276.47;5079680;28;20051;-80
2022/01/24 12:23:25;;;;;;;165.95;51.25;;;;;;;-11.19;52.87;101290.19;5094454;27;20044;-81
2022/01/24 12:25:57;;;;;;;177.27;54.60;;;;;;;-11.28;53.08;101289.84;5078238;28;20109;-79
2022/01/24 12:28:24;;;;;;;171.45;52.65;;;;;;;-11.35;53.21;101298.16;5060988;28;20513;-79
2022/01/24 12:31:01;;;;;;;162.50;52.88;;;;;;;-11.49;53.38;101287.28;5060934;28;20448;-79
2022/01/24 12:33:33;;;;;;;189.18;54.50;;;;;;;-11.58;53.30;101300.72;5077020;28;20483;-80
2022/01/24 12:36:16;;;;;;;171.20;54.80;;;;;;;-11.61;53.38;101290.25;5077857;28;20048;-77
2022/01/24 12:38:47;;;;;;;167.82;55.95;;;;;;;-11.73;53.96;101282.03;5094081;28;20051;-78
2022/01/24 12:41:38;;;;;;;176.38;55.17;;;;;;;-11.74;54.04;101303.47;5093470;28;20051;-80
2022/01/24 12:46:31;;;;;;;169.63;52.78;;;;;;;-11.85;54.21;101297.00;5070348;28;20406;-79
2022/01/24 12:48:58;;;;;;;163.35;52.28;;;;;;;-11.86;54.62;101298.72;5061867;28;20123;-78
2022/01/24 12:51:25;;;;;;;172.40;52.05;;;;;;;-11.97;54.62;101273.31;5096338;28;20386;-77
2022/01/24 12:53:51;;;;;;;184.40;54.53;;;;;;;-12.00;54.79;101280.13;5078149;28;20040;-76
2022/01/24 12:56:18;;;;;;;169.07;52.83;;;;;;;-11.93;54.72;101285.50;5061297;28;20079;-77
2022/01/24 12:58:46;;;;;;;174.23;51.70;;;;;;;-11.96;55.15;101280.22;5077358;28;20100;-79
2022/01/24 13:01:27;;;;;;;161.52;50.83;;;;;;;-12.00;55.43;101280.13;5076584;28;20078;-78
2022/01/24 13:04:13;;;;;;;170.60;54.35;;;;;;;-12.01;55.28;101280.91;5038901;28;20047;-77